Řízení letového provozu České republiky
Letiste: LKPR Aktualizace: 17.02.2019 02:01:06  UTC
 METAR LKPR 17.02. 02:00 ...
METAR LKPR 170200Z 20003KT CAVOK 01/M04 Q1026 NOSIG RMK REG QNH 1023=
 TAF LKPR 16.02. 23:00 ...
TAF LKPR 162300Z 1700/1806 21006KT CAVOK      TEMPO 1702/1708 VRB02KT 6000 NSC      PROB30 TEMPO 1803/1806 VRB02KT 2000 MIFG NSC=